Time;durP1;ratioP1;P1;durP2;ratioP2;P2;SDS_P1;SDS_P2;PMS_P1;PMS_P2;Temp;Humidity;BMP_temperature;BMP_pressure;BME280_temperature;BME280_humidity;BME280_pressure;Samples;Min_cycle;Max_cycle;Signal;HPM_P1;HPM_P2
2021/01/03 00:00:37;;;;;;;5.30;2.10;;;;;;;2.58;86.92;101940.59;4924027;29;20206;-67
2021/01/03 00:03:17;;;;;;;2.97;1.70;;;;;;;2.57;87.07;101943.28;4923003;29;20222;-68
2021/01/03 00:05:45;;;;;;;3.03;1.87;;;;;;;2.54;86.89;101936.25;4913555;29;20330;-68
2021/01/03 00:08:12;;;;;;;4.07;2.20;;;;;;;2.60;87.07;101943.22;4923271;29;20674;-68
2021/01/03 00:10:40;;;;;;;3.03;2.03;;;;;;;2.64;86.82;101950.22;4927767;29;20197;-69
2021/01/03 00:13:27;;;;;;;3.57;1.70;;;;;;;2.70;86.38;101950.13;4937769;29;20609;-68
2021/01/03 00:16:00;;;;;;;3.20;2.00;;;;;;;2.51;86.29;101946.03;4931855;29;20297;-68
2021/01/03 00:18:28;;;;;;;3.13;1.83;;;;;;;2.37;86.83;101956.81;4928678;29;20207;-67
2021/01/03 00:21:06;;;;;;;2.73;1.80;;;;;;;2.39;86.31;101962.97;4929490;29;20811;-68
2021/01/03 00:23:33;;;;;;;2.03;1.30;;;;;;;2.30;86.58;101976.34;4924306;29;20196;-69
2021/01/03 00:26:00;;;;;;;3.10;1.60;;;;;;;2.18;86.84;101967.69;4938547;29;20303;-68
2021/01/03 00:28:27;;;;;;;5.03;2.13;;;;;;;2.28;86.98;101970.19;4927198;29;20212;-68
2021/01/03 00:30:54;;;;;;;1.70;1.60;;;;;;;2.31;86.71;101973.69;4927038;29;20233;-68
2021/01/03 00:33:22;;;;;;;2.77;1.60;;;;;;;2.38;86.29;101978.00;4909897;29;20221;-68
2021/01/03 00:35:49;;;;;;;1.60;1.50;;;;;;;2.49;86.29;101986.69;4895440;29;20727;-68
2021/01/03 00:38:18;;;;;;;2.83;1.70;;;;;;;2.44;85.79;101983.19;4908690;29;20211;-68
2021/01/03 00:40:45;;;;;;;4.17;2.03;;;;;;;2.53;85.83;101989.28;4914142;29;20268;-68
2021/01/03 00:43:14;;;;;;;1.80;1.30;;;;;;;2.59;85.79;101994.50;4916323;29;20194;-68
2021/01/03 00:45:42;;;;;;;2.40;1.13;;;;;;;2.52;85.37;101999.00;4916249;29;20660;-68
2021/01/03 00:48:11;;;;;;;1.73;1.10;;;;;;;2.40;85.33;101999.16;4896110;29;20661;-68
2021/01/03 00:50:38;;;;;;;1.83;1.40;;;;;;;2.44;85.36;101998.22;4912985;29;20223;-68
2021/01/03 00:53:05;;;;;;;1.73;1.20;;;;;;;2.47;85.07;102012.34;4913113;29;20209;-68
2021/01/03 00:55:37;;;;;;;1701.63;476.93;;;;;;;2.27;85.22;101976.41;4912846;29;20205;-69
2021/01/03 00:58:07;;;;;;;11.03;4.10;;;;;;;2.51;84.91;102005.22;4913900;29;20575;-69
2021/01/03 01:00:35;;;;;;;1.80;1.70;;;;;;;2.62;85.33;102010.34;4911535;29;20192;-68
2021/01/03 01:03:05;;;;;;;3.53;1.90;;;;;;;2.62;85.46;102015.66;4904195;29;20259;-68
2021/01/03 01:05:32;;;;;;;2.70;1.30;;;;;;;2.66;85.30;102004.97;4909367;29;20198;-68
2021/01/03 01:07:59;;;;;;;3.23;1.60;;;;;;;2.80;85.13;102015.41;4896724;29;20602;-67
2021/01/03 01:10:29;;;;;;;1.97;1.37;;;;;;;2.88;85.00;102017.94;4915322;29;20193;-66
2021/01/03 01:13:00;;;;;;;1.50;1.27;;;;;;;2.83;84.80;102030.38;4912519;29;20242;-68
2021/01/03 01:15:30;;;;;;;3.60;2.17;;;;;;;2.76;85.02;102032.25;4913556;29;20213;-67
2021/01/03 01:18:01;;;;;;;4.80;3.67;;;;;;;2.49;84.42;101977.84;4912761;29;20205;-68
2021/01/03 01:20:31;;;;;;;1.97;1.80;;;;;;;2.77;84.49;102047.28;4918550;29;20288;-70
2021/01/03 01:23:05;;;;;;;1.43;1.33;;;;;;;2.82;84.18;102041.91;4914474;29;20272;-68
2021/01/03 01:25:34;;;;;;;6.80;1.20;;;;;;;2.74;84.34;102052.59;4914761;29;20200;-68
2021/01/03 01:28:02;;;;;;;1.40;1.30;;;;;;;2.68;84.06;102048.25;4915140;29;20199;-68
2021/01/03 01:30:31;;;;;;;2.40;2.17;;;;;;;2.70;84.38;102054.41;4914190;29;20191;-68
2021/01/03 01:32:59;;;;;;;2.00;1.07;;;;;;;2.03;84.13;101951.97;4912656;29;20198;-68
2021/01/03 01:35:28;;;;;;;2.83;1.80;;;;;;;2.43;84.17;102047.72;4914012;29;20223;-68
2021/01/03 01:37:56;;;;;;;1.80;1.67;;;;;;;2.60;84.59;102058.09;4914085;29;20197;-68
2021/01/03 01:40:30;;;;;;;1.00;0.90;;;;;;;2.48;84.32;102055.63;4915126;29;20221;-68
2021/01/03 01:42:58;;;;;;;1.33;1.23;;;;;;;2.52;84.46;102070.59;4912644;29;20318;-68
2021/01/03 01:45:29;;;;;;;1.93;1.40;;;;;;;2.33;84.65;102061.13;4909201;29;20206;-67
2021/01/03 01:48:00;;;;;;;0.77;0.73;;;;;;;2.40;84.84;102063.66;4913199;29;20693;-66
2021/01/03 01:50:34;;;;;;;1.07;0.90;;;;;;;2.47;84.33;102072.44;4906935;29;20278;-67
2021/01/03 01:53:05;;;;;;;3.37;0.93;;;;;;;2.14;84.46;102036.59;4909385;29;20189;-67
2021/01/03 01:55:35;;;;;;;0.83;0.73;;;;;;;2.46;84.12;102074.22;4915976;29;20214;-67
2021/01/03 01:58:38;;;;;;;0.83;0.80;;;;;;;2.28;84.13;102036.44;4908782;29;20196;-69
2021/01/03 02:01:48;;;;;;;2.20;0.80;;;;;;;2.61;84.09;102077.53;4916735;29;20202;-72
2021/01/03 02:04:46;;;;;;;4.67;0.70;;;;;;;2.45;83.87;102091.00;4876705;29;20208;-68
2021/01/03 02:07:19;;;;;;;1.23;0.80;;;;;;;2.27;84.19;102093.00;4901590;29;20576;-69
2021/01/03 02:09:58;;;;;;;1.13;0.90;;;;;;;2.25;84.15;102098.31;4916453;29;20209;-68
2021/01/03 02:12:30;;;;;;;1.33;0.73;;;;;;;2.18;84.39;102096.63;4904655;29;20651;-68
2021/01/03 02:14:58;;;;;;;0.90;0.73;;;;;;;2.11;84.22;102087.84;4915312;29;20211;-68
2021/01/03 02:17:27;;;;;;;0.60;0.60;;;;;;;2.15;84.20;102100.19;4913736;29;20210;-68
2021/01/03 02:19:59;;;;;;;0.80;0.70;;;;;;;2.27;84.03;102098.28;4916818;29;20614;-68
2021/01/03 02:22:58;;;;;;;0.77;0.70;;;;;;;2.11;84.42;102092.28;4933158;29;20294;-67
2021/01/03 02:25:27;;;;;;;0.60;0.60;;;;;;;2.23;84.22;102099.22;4924289;29;20201;-68
2021/01/03 02:28:11;;;;;;;1.00;0.70;;;;;;;2.28;83.98;102108.00;4918451;29;20236;-68
2021/01/03 02:30:39;;;;;;;1.77;0.60;;;;;;;2.20;83.90;102101.91;4929534;29;20199;-68
2021/01/03 02:33:18;;;;;;;3.50;0.70;;;;;;;2.21;83.86;102111.63;4919211;29;20356;-68
2021/01/03 02:35:47;;;;;;;0.83;0.73;;;;;;;2.26;83.70;102108.03;4937898;29;20213;-68
2021/01/03 02:38:20;;;;;;;0.63;0.63;;;;;;;2.24;83.81;102114.22;4922646;29;20285;-68
2021/01/03 02:40:48;;;;;;;0.90;0.90;;;;;;;2.32;83.51;102110.59;4936154;29;20204;-68
2021/01/03 02:43:15;;;;;;;0.80;0.80;;;;;;;2.38;83.65;102113.16;4931943;29;20208;-68
2021/01/03 02:45:42;;;;;;;3.10;1.00;;;;;;;2.33;83.48;102111.47;4929975;29;20256;-68
2021/01/03 02:48:15;;;;;;;0.70;0.70;;;;;;;2.30;83.49;102119.47;4937681;29;20272;-68
2021/01/03 02:50:42;;;;;;;1.60;0.83;;;;;;;2.31;83.45;102108.84;4922558;29;20191;-68
2021/01/03 02:53:09;;;;;;;913.70;349.23;;;;;;;2.45;83.50;102119.28;4929783;29;20257;-68
2021/01/03 02:55:36;;;;;;;38.33;17.20;;;;;;;2.42;83.47;102117.53;4923477;29;20231;-68
2021/01/03 02:58:05;;;;;;;1.37;1.27;;;;;;;2.54;83.56;102124.47;4932987;29;20202;-68
2021/01/03 03:00:34;;;;;;;3.00;2.70;;;;;;;2.52;83.99;102123.63;4922740;29;20289;-68
2021/01/03 03:03:02;;;;;;;1.00;1.00;;;;;;;2.55;83.81;102126.22;4922578;29;20213;-68
2021/01/03 03:05:29;;;;;;;1.63;0.90;;;;;;;2.53;83.73;102128.03;4930722;29;20220;-67
2021/01/03 03:07:56;;;;;;;0.70;0.70;;;;;;;2.58;83.93;102131.50;4927207;29;20530;-68
2021/01/03 03:10:23;;;;;;;1.03;0.83;;;;;;;2.51;83.55;102140.44;4931671;29;20197;-67
2021/01/03 03:12:52;;;;;;;0.83;0.67;;;;;;;2.43;83.63;102126.34;4926627;29;20193;-68
2021/01/03 03:15:22;;;;;;;1.47;1.37;;;;;;;2.34;83.50;102139.72;4931852;29;20238;-67
2021/01/03 03:17:50;;;;;;;1.07;1.00;;;;;;;2.37;83.45;102139.69;4929983;29;20238;-68
2021/01/03 03:20:18;;;;;;;0.73;0.50;;;;;;;2.13;83.19;102144.34;4927298;29;20686;-68
2021/01/03 03:22:46;;;;;;;0.80;0.80;;;;;;;2.21;83.19;102138.13;4924646;29;20222;-68
2021/01/03 03:25:15;;;;;;;1.07;0.73;;;;;;;2.26;83.38;102144.25;4922065;29;20206;-68
2021/01/03 03:27:42;;;;;;;1.30;1.20;;;;;;;2.26;83.23;102149.53;4934650;29;20201;-67
2021/01/03 03:30:13;;;;;;;1.80;0.60;;;;;;;2.32;83.00;102144.16;4928532;29;20202;-67
2021/01/03 03:32:41;;;;;;;1.20;1.10;;;;;;;1.74;83.21;102036.19;4935854;29;20674;-68
2021/01/03 03:35:10;;;;;;;1.17;0.80;;;;;;;2.41;83.17;102146.72;4931800;29;20256;-68
2021/01/03 03:37:39;;;;;;;0.60;0.60;;;;;;;2.29;82.68;102149.50;4931397;29;20193;-68
2021/01/03 03:40:07;;;;;;;0.43;0.43;;;;;;;2.06;82.55;102158.56;4935771;29;20275;-68
2021/01/03 03:42:34;;;;;;;0.50;0.50;;;;;;;1.99;82.50;102151.56;4935621;29;20203;-68
2021/01/03 03:45:02;;;;;;;0.57;0.57;;;;;;;2.12;82.55;102147.03;4924111;29;20206;-68
2021/01/03 03:47:29;;;;;;;0.40;0.40;;;;;;;2.23;82.46;102144.28;4932043;29;20239;-68
2021/01/03 03:49:57;;;;;;;1.60;0.53;;;;;;;2.22;82.46;102154.00;4916896;29;20194;-68
2021/01/03 03:52:24;;;;;;;0.67;0.57;;;;;;;2.17;82.46;102146.09;4926525;29;20197;-67
2021/01/03 03:54:51;;;;;;;0.60;0.60;;;;;;;2.22;82.37;102150.47;4933161;29;20224;-68
2021/01/03 03:57:19;;;;;;;0.97;0.53;;;;;;;2.32;82.38;102150.34;4936878;29;20216;-68
2021/01/03 03:59:46;;;;;;;0.43;0.43;;;;;;;2.34;82.34;102160.94;4922694;29;20273;-67
2021/01/03 04:02:13;;;;;;;0.87;0.60;;;;;;;2.12;82.28;102158.50;4929557;29;20287;-67
2021/01/03 04:04:40;;;;;;;0.30;0.30;;;;;;;2.18;82.41;102153.16;4923373;29;20210;-67
2021/01/03 04:07:08;;;;;;;0.63;0.60;;;;;;;2.22;82.62;102158.41;4915240;29;20275;-68
2021/01/03 04:09:35;;;;;;;0.40;0.40;;;;;;;2.34;82.41;102160.94;4928600;29;20547;-68
2021/01/03 04:12:02;;;;;;;0.63;0.63;;;;;;;2.31;82.31;102153.00;4937214;29;20204;-67
2021/01/03 04:14:29;;;;;;;0.40;0.30;;;;;;;2.20;82.64;102149.63;4935176;29;20218;-68
2021/01/03 04:16:59;;;;;;;1.17;0.50;;;;;;;2.36;82.29;102159.13;4915211;29;20191;-67
2021/01/03 04:19:28;;;;;;;0.30;0.30;;;;;;;2.34;82.32;102161.81;4926626;29;20269;-68
2021/01/03 04:21:57;;;;;;;0.40;0.40;;;;;;;2.17;82.40;102151.41;4916038;29;20203;-67
2021/01/03 04:24:25;;;;;;;0.40;0.40;;;;;;;2.25;82.64;102158.38;4916151;29;20205;-68
2021/01/03 04:26:55;;;;;;;0.50;0.50;;;;;;;2.16;82.89;102162.03;4915320;29;20683;-68
2021/01/03 04:29:22;;;;;;;0.57;0.57;;;;;;;2.24;82.61;102164.59;4913451;29;21870;-68
2021/01/03 04:31:53;;;;;;;0.67;0.40;;;;;;;2.16;82.81;102160.25;4916510;29;20206;-68
2021/01/03 04:34:21;;;;;;;1.10;0.57;;;;;;;1.98;83.00;102160.41;4911414;29;20228;-68
2021/01/03 04:36:50;;;;;;;0.57;0.57;;;;;;;2.18;82.84;102162.88;4914704;29;20203;-67
2021/01/03 04:39:17;;;;;;;247.43;109.37;;;;;;;1.99;82.95;102158.66;4913393;29;20194;-68
2021/01/03 04:41:47;;;;;;;0.60;0.60;;;;;;;1.52;82.93;102129.03;4917274;29;20202;-68
2021/01/03 04:44:20;;;;;;;1.37;1.27;;;;;;;1.74;83.21;102173.88;4912887;29;20208;-68
2021/01/03 04:46:48;;;;;;;0.70;0.70;;;;;;;1.72;83.76;102173.88;4915720;29;20210;-68
2021/01/03 04:49:25;;;;;;;0.60;0.60;;;;;;;1.63;83.65;102179.25;4915858;29;20211;-68
2021/01/03 04:52:26;;;;;;;0.80;0.50;;;;;;;1.55;83.75;102181.97;4913811;29;20209;-68
2021/01/03 04:55:08;;;;;;;2.10;0.70;;;;;;;1.55;83.82;102187.25;4910917;29;20225;-68
2021/01/03 04:57:44;;;;;;;0.70;0.70;;;;;;;1.64;83.46;102185.44;4916984;29;20197;-68
2021/01/03 05:00:15;;;;;;;0.50;0.50;;;;;;;1.57;83.54;102194.31;4915959;29;20212;-68
2021/01/03 05:03:05;;;;;;;0.50;0.50;;;;;;;1.37;83.80;102187.38;4912915;29;20201;-67
2021/01/03 05:05:36;;;;;;;0.90;0.90;;;;;;;1.45;84.06;102198.78;4915784;29;20196;-68
2021/01/03 05:08:32;;;;;;;1.77;0.97;;;;;;;1.49;83.78;102203.16;4914725;29;20202;-68
2021/01/03 05:11:03;;;;;;;0.60;0.47;;;;;;;1.48;83.82;102206.69;4912108;29;20222;-68
2021/01/03 05:13:40;;;;;;;1.70;0.50;;;;;;;1.59;83.92;102209.28;4916728;29;20189;-67
2021/01/03 05:16:10;;;;;;;1.00;0.60;;;;;;;1.50;83.83;102204.03;4914330;29;20273;-68
2021/01/03 05:18:40;;;;;;;1.20;1.10;;;;;;;1.42;83.60;102219.97;4917044;29;20194;-68
2021/01/03 05:21:08;;;;;;;0.67;0.67;;;;;;;1.34;83.31;102220.94;4923743;29;20197;-68
2021/01/03 05:23:37;;;;;;;4.23;0.63;;;;;;;1.32;82.94;102213.00;4915209;29;20225;-68
2021/01/03 05:26:08;;;;;;;2.70;1.90;;;;;;;1.46;82.83;102218.19;4926072;29;20252;-68
2021/01/03 05:28:38;;;;;;;2.00;0.80;;;;;;;1.65;82.88;102219.84;4926953;29;20202;-67
2021/01/03 05:31:13;;;;;;;0.50;0.47;;;;;;;1.70;82.91;102223.31;4915279;29;20217;-68
2021/01/03 05:33:51;;;;;;;0.40;0.40;;;;;;;1.52;82.33;102224.31;4935423;29;20668;-69
2021/01/03 05:36:42;;;;;;;0.50;0.50;;;;;;;1.31;82.54;102223.59;4927578;29;20209;-69
2021/01/03 05:39:28;;;;;;;0.50;0.50;;;;;;;1.15;82.49;102212.19;4922149;29;20200;-68
2021/01/03 05:42:15;;;;;;;0.70;0.70;;;;;;;1.38;82.38;102231.47;4935045;29;20535;-68
2021/01/03 05:44:53;;;;;;;0.60;0.30;;;;;;;1.44;82.37;102223.50;4910518;29;20208;-69
2021/01/03 05:47:25;;;;;;;0.53;0.53;;;;;;;1.15;82.63;102165.47;4929770;29;20307;-69
2021/01/03 05:50:17;;;;;;;0.40;0.40;;;;;;;1.38;82.61;102231.47;4922527;29;20587;-69
2021/01/03 05:52:52;;;;;;;0.60;0.60;;;;;;;1.31;82.87;102243.00;4926636;29;20575;-69
2021/01/03 05:55:25;;;;;;;0.50;0.50;;;;;;;1.22;82.16;102238.63;4934819;29;20233;-69
2021/01/03 05:58:17;;;;;;;0.60;0.60;;;;;;;1.23;82.09;102243.03;4936169;29;20196;-68
2021/01/03 06:00:46;;;;;;;0.30;0.30;;;;;;;1.17;81.67;102236.88;4923776;29;20204;-68
2021/01/03 06:03:17;;;;;;;0.97;0.60;;;;;;;1.08;81.28;102231.63;4934511;29;20198;-68
2021/01/03 06:05:46;;;;;;;1.27;0.50;;;;;;;1.33;81.49;102242.97;4915724;29;20209;-69
2021/01/03 06:08:19;;;;;;;0.70;0.70;;;;;;;1.46;81.31;102250.81;4919201;29;20295;-68
2021/01/03 06:10:46;;;;;;;0.63;0.60;;;;;;;1.41;80.89;102251.75;4905711;29;20301;-69
2021/01/03 06:13:15;;;;;;;0.57;0.30;;;;;;;1.15;80.78;102233.34;4909222;29;20296;-68
2021/01/03 06:15:48;;;;;;;0.30;0.30;;;;;;;1.32;80.91;102252.69;4900853;29;20728;-68
2021/01/03 06:18:26;;;;;;;0.50;0.40;;;;;;;1.48;80.57;102259.63;4902623;29;20202;-68
2021/01/03 06:20:53;;;;;;;0.40;0.40;;;;;;;1.55;80.66;102260.50;4918522;29;20197;-68
2021/01/03 06:23:30;;;;;;;44.20;25.77;;;;;;;1.58;80.78;102270.19;4938728;29;20211;-68
2021/01/03 06:26:02;;;;;;;4.60;3.50;;;;;;;1.66;80.75;102265.72;4917373;29;20303;-69
2021/01/03 06:28:40;;;;;;;0.73;0.73;;;;;;;1.61;80.60;102262.22;4938493;29;20737;-69
2021/01/03 06:31:49;;;;;;;0.60;0.60;;;;;;;1.40;80.93;102265.88;4938923;29;20198;-68
2021/01/03 06:34:27;;;;;;;0.30;0.30;;;;;;;1.52;81.29;102276.38;4884674;29;20686;-68
2021/01/03 06:37:02;;;;;;;0.50;0.40;;;;;;;1.50;80.91;102275.50;4925385;29;20201;-68
2021/01/03 06:39:40;;;;;;;0.83;0.70;;;;;;;1.60;81.38;102282.53;4938763;29;20566;-68
2021/01/03 06:42:51;;;;;;;0.50;0.43;;;;;;;1.69;80.91;102276.28;4938495;29;20208;-68
2021/01/03 06:45:44;;;;;;;0.70;0.67;;;;;;;1.74;80.74;102279.78;4938686;29;20236;-68
2021/01/03 06:48:44;;;;;;;0.93;0.93;;;;;;;1.69;81.16;102277.16;4918699;29;20332;-68
2021/01/03 06:51:29;;;;;;;1.23;1.17;;;;;;;1.81;81.02;102278.84;4938739;29;20204;-67
2021/01/03 06:54:28;;;;;;;0.63;0.43;;;;;;;1.91;81.11;102283.22;4925811;29;20280;-68
2021/01/03 06:57:20;;;;;;;0.43;0.43;;;;;;;1.97;81.05;102290.22;4940952;29;20793;-68
2021/01/03 07:00:16;;;;;;;1.83;1.67;;;;;;;2.02;81.17;102297.25;4940788;29;20203;-68
2021/01/03 07:02:48;;;;;;;0.93;0.83;;;;;;;1.82;81.75;102292.06;4935791;29;20283;-68
2021/01/03 07:05:16;;;;;;;0.73;0.73;;;;;;;1.47;82.02;102307.28;4939511;29;20287;-68
2021/01/03 07:07:58;;;;;;;1.10;1.00;;;;;;;1.31;81.84;102305.63;4940286;29;20336;-68
2021/01/03 07:10:38;;;;;;;0.60;0.60;;;;;;;1.31;82.23;102316.19;4929087;29;20207;-68
2021/01/03 07:13:36;;;;;;;0.53;0.53;;;;;;;1.33;81.58;102307.38;4936709;29;20552;-68
2021/01/03 07:16:08;;;;;;;1.17;0.70;;;;;;;1.27;81.60;102304.75;4936251;29;20233;-67
2021/01/03 07:18:46;;;;;;;0.50;0.50;;;;;;;1.13;81.20;102258.94;4938036;29;20211;-68
2021/01/03 07:21:26;;;;;;;0.90;0.60;;;;;;;1.53;80.72;102321.41;4920496;29;20209;-68
2021/01/03 07:24:15;;;;;;;0.53;0.53;;;;;;;1.05;81.05;102244.88;4910470;29;20195;-68
2021/01/03 07:26:44;;;;;;;0.50;0.50;;;;;;;1.63;81.05;102337.22;4903448;29;20292;-68
2021/01/03 07:29:16;;;;;;;0.60;0.60;;;;;;;1.53;80.85;102337.28;4918293;29;20312;-68
2021/01/03 07:31:57;;;;;;;0.73;0.63;;;;;;;0.93;81.12;102262.56;4905969;29;20202;-67
2021/01/03 07:34:28;;;;;;;0.47;0.47;;;;;;;0.66;81.40;102267.94;4905706;29;20625;-68
2021/01/03 07:36:57;;;;;;;0.90;0.90;;;;;;;1.07;81.23;102341.84;4899327;29;20304;-68
2021/01/03 07:39:28;;;;;;;0.50;0.50;;;;;;;0.75;81.07;102275.84;4912757;29;20205;-68
2021/01/03 07:42:23;;;;;;;1.43;0.70;;;;;;;1.33;81.06;102343.53;4906057;29;20209;-68
2021/01/03 07:44:54;;;;;;;1.57;0.50;;;;;;;1.33;80.92;102343.53;4874429;29;20264;-68
2021/01/03 07:47:36;;;;;;;0.93;0.53;;;;;;;1.21;80.91;102340.03;4911268;29;20242;-68
2021/01/03 07:50:36;;;;;;;5.30;0.70;;;;;;;1.01;81.11;102348.94;4912845;29;20236;-63
2021/01/03 07:53:34;;;;;;;1.50;0.67;;;;;;;0.96;81.42;102348.06;4912487;29;20213;-68
2021/01/03 07:56:20;;;;;;;0.60;0.60;;;;;;;0.87;81.37;102347.16;4915544;29;20218;-67
2021/01/03 07:58:53;;;;;;;0.50;0.50;;;;;;;0.63;81.12;102286.44;4913797;29;20647;-67
2021/01/03 08:01:23;;;;;;;0.50;0.50;;;;;;;1.01;81.50;102343.63;4914383;29;20201;-68
2021/01/03 08:03:50;;;;;;;0.57;0.50;;;;;;;1.05;81.03;102353.31;4920892;29;20209;-68
2021/01/03 08:06:20;;;;;;;0.47;0.37;;;;;;;1.12;80.97;102355.94;4916611;29;20209;-68
2021/01/03 08:08:53;;;;;;;1.50;0.60;;;;;;;1.22;80.80;102355.03;4912867;29;20201;-68
2021/01/03 08:11:28;;;;;;;0.50;0.50;;;;;;;1.31;80.61;102361.19;4908819;29;20745;-68
2021/01/03 08:14:00;;;;;;;4.27;3.87;;;;;;;1.11;80.80;102361.22;4915518;29;20265;-67
2021/01/03 08:16:30;;;;;;;269.10;103.60;;;;;;;1.15;80.81;102365.63;4917563;29;20355;-68
2021/01/03 08:19:04;;;;;;;1.93;1.43;;;;;;;1.20;80.79;102363.84;4916244;29;20273;-68
2021/01/03 08:21:32;;;;;;;0.60;0.60;;;;;;;1.34;80.58;102372.63;4930611;29;20741;-68
2021/01/03 08:24:06;;;;;;;1.20;1.10;;;;;;;1.02;80.22;102380.66;4933099;29;20287;-68
2021/01/03 08:26:41;;;;;;;0.97;0.83;;;;;;;0.93;80.58;102385.97;4935955;29;20594;-68
2021/01/03 08:29:18;;;;;;;0.87;0.80;;;;;;;1.18;80.98;102381.50;4916584;29;20225;-68
2021/01/03 08:31:49;;;;;;;0.80;0.70;;;;;;;1.22;81.03;102383.25;4912106;29;20210;-67
2021/01/03 08:34:19;;;;;;;0.60;0.60;;;;;;;1.33;80.56;102384.09;4914552;29;20543;-68
2021/01/03 08:36:46;;;;;;;0.80;0.80;;;;;;;1.35;80.37;102368.22;4916066;29;20275;-68
2021/01/03 08:39:15;;;;;;;2.10;1.50;;;;;;;1.57;80.28;102390.19;4910934;29;20204;-68
2021/01/03 08:41:54;;;;;;;0.70;0.70;;;;;;;1.64;80.15;102395.47;4912565;29;20604;-68
2021/01/03 08:44:26;;;;;;;1.77;1.30;;;;;;;1.71;80.14;102397.19;4915550;29;20279;-68
2021/01/03 08:47:02;;;;;;;1.03;0.93;;;;;;;1.46;79.91;102375.22;4912509;29;20279;-68
2021/01/03 08:49:29;;;;;;;0.83;0.77;;;;;;;1.35;80.08;102394.69;4911526;29;20279;-68
2021/01/03 08:52:07;;;;;;;0.70;0.70;;;;;;;1.16;79.74;102418.53;4911262;29;20209;-68
2021/01/03 08:54:34;;;;;;;0.70;0.70;;;;;;;1.26;80.21;102400.88;4916960;29;20204;-68
2021/01/03 08:57:05;;;;;;;0.77;0.77;;;;;;;1.40;79.85;102399.06;4914824;29;20675;-68
2021/01/03 08:59:32;;;;;;;0.80;0.80;;;;;;;1.63;79.99;102416.66;4905534;29;20673;-68
2021/01/03 09:01:59;;;;;;;0.73;0.73;;;;;;;1.73;79.98;102413.06;4914451;29;20237;-68
2021/01/03 09:04:27;;;;;;;0.53;0.53;;;;;;;1.83;79.91;102405.06;4911824;29;20279;-67
2021/01/03 09:06:58;;;;;;;0.63;0.60;;;;;;;1.91;79.34;102415.66;4915108;29;20208;-68
2021/01/03 09:09:27;;;;;;;1.53;0.60;;;;;;;1.91;79.51;102413.00;4906292;29;20203;-68
2021/01/03 09:11:56;;;;;;;1.57;1.00;;;;;;;1.98;79.55;102422.66;4897954;29;20207;-68
2021/01/03 09:14:32;;;;;;;0.90;0.70;;;;;;;2.04;80.02;102424.38;4905262;29;20296;-68
2021/01/03 09:17:06;;;;;;;0.50;0.50;;;;;;;1.87;79.42;102416.56;4904078;29;20202;-67
2021/01/03 09:19:47;;;;;;;0.57;0.57;;;;;;;1.88;79.65;102431.56;4914781;29;20198;-68
2021/01/03 09:22:24;;;;;;;1.23;0.70;;;;;;;1.80;79.89;102430.69;4902387;29;20191;-68
2021/01/03 09:24:58;;;;;;;0.33;0.33;;;;;;;1.79;79.57;102426.28;4913309;29;20203;-68
2021/01/03 09:27:28;;;;;;;0.50;0.50;;;;;;;1.77;79.72;102428.03;4915090;29;20197;-68
2021/01/03 09:30:13;;;;;;;0.60;0.60;;;;;;;1.44;79.50;102432.56;4908976;29;20195;-68
2021/01/03 09:32:42;;;;;;;0.70;0.70;;;;;;;1.30;79.67;102429.09;4902749;29;20201;-67
2021/01/03 09:35:20;;;;;;;0.60;0.60;;;;;;;1.26;79.38;102431.75;4912929;29;20218;-67
2021/01/03 09:38:09;;;;;;;1.10;0.80;;;;;;;1.33;79.87;102437.03;4906281;29;20210;-68
2021/01/03 09:40:42;;;;;;;0.60;0.60;;;;;;;1.46;79.53;102430.81;4902830;29;20189;-68
2021/01/03 09:43:26;;;;;;;0.57;0.57;;;;;;;1.59;79.51;102433.44;4904833;29;20585;-68
2021/01/03 09:46:03;;;;;;;0.50;0.50;;;;;;;1.60;79.84;102432.53;4915382;29;20193;-67
2021/01/03 09:48:34;;;;;;;0.70;0.70;;;;;;;1.70;79.95;102436.91;4916213;29;20240;-68
2021/01/03 09:51:10;;;;;;;28.90;8.90;;;;;;;1.75;79.56;102440.41;4903886;29;20208;-67
2021/01/03 09:53:42;;;;;;;0.70;0.70;;;;;;;1.84;80.13;102435.09;4904933;29;20199;-67
2021/01/03 09:56:18;;;;;;;1.27;0.90;;;;;;;1.23;79.73;102364.75;4909857;29;20309;-67
2021/01/03 09:58:50;;;;;;;0.90;0.70;;;;;;;1.58;79.76;102439.63;4906645;29;20214;-68
2021/01/03 10:01:28;;;;;;;1.37;0.80;;;;;;;1.65;80.18;102436.06;4905976;29;20191;-67
2021/01/03 10:03:55;;;;;;;0.63;0.63;;;;;;;1.57;79.92;102440.50;4914771;29;20658;-68
2021/01/03 10:06:24;;;;;;;1.00;0.87;;;;;;;1.55;79.71;102445.81;4912997;29;20205;-68
2021/01/03 10:09:08;;;;;;;0.90;0.90;;;;;;;1.72;79.89;102443.09;4909184;29;20219;-67
2021/01/03 10:11:36;;;;;;;0.70;0.70;;;;;;;1.40;79.48;102367.31;4910857;29;20208;-68
2021/01/03 10:14:07;;;;;;;0.53;0.53;;;;;;;1.88;79.19;102450.09;4914967;29;20240;-67
2021/01/03 10:16:37;;;;;;;1.70;0.73;;;;;;;1.87;78.95;102435.09;4909846;29;20240;-68
2021/01/03 10:19:18;;;;;;;2.47;0.60;;;;;;;2.03;79.39;102439.41;4897549;29;20302;-67
2021/01/03 10:21:46;;;;;;;0.80;0.80;;;;;;;2.09;79.27;102434.06;4904858;29;20196;-66
2021/01/03 10:24:18;;;;;;;0.60;0.60;;;;;;;2.17;79.37;102432.28;4912814;29;20273;-67
2021/01/03 10:26:48;;;;;;;2.43;0.90;;;;;;;2.23;79.20;102431.34;4913060;29;20656;-67
2021/01/03 10:29:16;;;;;;;1.07;0.97;;;;;;;2.30;79.27;102435.72;4896441;29;20294;-67
2021/01/03 10:31:46;;;;;;;0.50;0.50;;;;;;;2.31;78.78;102433.94;4916776;29;20204;-66
2021/01/03 10:34:15;;;;;;;1.50;1.40;;;;;;;2.33;78.93;102438.34;4912175;29;20202;-66
2021/01/03 10:36:42;;;;;;;0.60;0.60;;;;;;;2.26;79.16;102430.47;4912484;29;20220;-67
2021/01/03 10:39:12;;;;;;;0.50;0.50;;;;;;;2.34;78.60;102444.53;4919993;29;20309;-66
2021/01/03 10:41:44;;;;;;;0.40;0.40;;;;;;;2.23;78.70;102441.97;4920550;29;20249;-66
2021/01/03 10:44:12;;;;;;;0.70;0.70;;;;;;;2.07;78.95;102425.25;4918087;29;20293;-67
2021/01/03 10:46:40;;;;;;;0.40;0.40;;;;;;;2.25;79.01;102434.88;4911260;29;20268;-66
2021/01/03 10:49:10;;;;;;;0.50;0.40;;;;;;;2.27;78.82;102437.50;4897688;29;20635;-66
2021/01/03 10:51:39;;;;;;;0.47;0.47;;;;;;;2.31;79.02;102426.00;4920827;29;20209;-67
2021/01/03 10:54:07;;;;;;;0.50;0.50;;;;;;;2.03;79.28;102383.78;4906057;29;20556;-67
2021/01/03 10:56:35;;;;;;;0.50;0.50;;;;;;;2.30;79.35;102427.78;4903606;29;20588;-67
2021/01/03 10:59:03;;;;;;;0.50;0.50;;;;;;;2.36;79.67;102432.16;4911927;29;20201;-68
2021/01/03 11:01:39;;;;;;;0.60;0.60;;;;;;;2.30;79.75;102437.50;4901851;29;20646;-67
2021/01/03 11:04:07;;;;;;;0.30;0.30;;;;;;;2.38;80.27;102439.19;4901615;29;20207;-67
2021/01/03 11:06:38;;;;;;;0.47;0.47;;;;;;;2.33;79.68;102437.47;4900413;29;20206;-68
2021/01/03 11:09:08;;;;;;;0.70;0.70;;;;;;;2.38;80.15;102435.66;4903279;29;20259;-66
2021/01/03 11:11:35;;;;;;;0.50;0.50;;;;;;;2.30;79.12;102448.97;4910797;29;20226;-67
2021/01/03 11:14:02;;;;;;;1.07;0.50;;;;;;;2.30;79.65;102429.53;4898929;29;20191;-68
2021/01/03 11:16:32;;;;;;;0.40;0.40;;;;;;;2.42;79.61;102437.41;4915469;29;20226;-67
2021/01/03 11:18:59;;;;;;;1.17;0.60;;;;;;;2.37;79.52;102432.13;4903837;29;20198;-69
2021/01/03 11:21:27;;;;;;;0.60;0.60;;;;;;;2.42;79.66;102437.41;4917807;29;20198;-67
2021/01/03 11:23:55;;;;;;;0.93;0.60;;;;;;;2.46;79.68;102441.81;4925939;29;20274;-68
2021/01/03 11:26:30;;;;;;;0.53;0.53;;;;;;;2.42;79.52;102443.59;4919163;29;20199;-67
2021/01/03 11:28:58;;;;;;;4.60;2.70;;;;;;;2.45;79.74;102440.94;4907252;29;20314;-67
2021/01/03 11:31:34;;;;;;;5.03;1.90;;;;;;;2.45;79.20;102446.25;4915974;29;20652;-67
2021/01/03 11:34:04;;;;;;;3.13;1.83;;;;;;;2.42;79.60;102437.41;4918167;29;20199;-67
2021/01/03 11:36:31;;;;;;;1.97;1.73;;;;;;;2.20;78.49;102438.44;4908793;29;20236;-66
2021/01/03 11:39:00;;;;;;;1.23;0.90;;;;;;;1.76;77.88;102368.03;4910565;29;20190;-67
2021/01/03 11:41:27;;;;;;;0.60;0.60;;;;;;;1.94;77.54;102430.63;4905892;29;20229;-65
2021/01/03 11:43:56;;;;;;;1.20;1.10;;;;;;;1.90;77.85;102411.22;4886386;29;20222;-67
2021/01/03 11:46:23;;;;;;;0.50;0.50;;;;;;;1.72;78.41;102358.34;4906653;29;20656;-67
2021/01/03 11:48:51;;;;;;;0.70;0.57;;;;;;;1.94;77.60;102423.56;4903265;29;20226;-68
2021/01/03 11:51:19;;;;;;;1.70;1.10;;;;;;;2.02;78.32;102424.41;4904802;29;20447;-68
2021/01/03 11:53:46;;;;;;;1.27;1.00;;;;;;;2.14;77.91;102427.00;4905391;29;20206;-66
2021/01/03 11:56:23;;;;;;;0.63;0.63;;;;;;;2.35;78.11;102425.97;4906980;29;21107;-65
2021/01/03 11:58:51;;;;;;;0.60;0.60;;;;;;;2.48;78.22;102432.97;4904986;29;20300;-66